Terminal Aerodrome Forecast
Issued by NWS

Home | Current Version | Previous Version | Text Only | Print | Product List | Glossary On
Versions: 1 2 3 4 5 6 7 8 9 10 11
000
FTUS46 KSTO 181732
TAFMHR
TAF
KMHR 181732Z 1818/1918 20010KT P6SM SKC
     FM182100 29011G18KT P6SM BKN080
     FM190300 29008KT P6SM SCT100=

USA.gov is the U.S. government's official web portal to all federal, state and local government web resources and services.